»·PEaware :: FDX2503 KLAX-KSFO

FDX2503 :: KLAX-KSFO

FLIGHT INFORMATION

Flight Status: Arrived
Operator:
Federal Express
More flights by this operator :: More flights under this callsign
Pilot: Kyle M. (9350)
Aircraft: BOEING 757-200
(B752)
More flights by this aircraft type
Origin: KLAX Los Angeles Intl
United States
Destination: KSFO San Francisco Intl
United States
More flights between these airports :: More routes between these airports
Route: SUMMR1 STOKD SERFR SERFR3
File this flight plan on PilotEdge
Remarks: CptCanada YouTube Live Streams
Altitude:
(Current/Filed)
34,000ft
Speed:
(Current/Filed)
450kts
Departed: 10-Oct-19 10:27 AM
Arrived: 10-Oct-19 11:23 AM
Distance/Time
Traveled:
294nm/0:56
Distance/Time
To Go:
Arrived

Flight Plot

Page will automatically refresh every two minutes.

Flight plan parsing failed; only flown route is shown


Map Options




Map Legend


Flown Route
Filed Route
Departure Airport
Arrival Airport
Navaid (VOR, NDB)
Fix

Horizontal Profiles

Position Reports

Time Latitude Longitude Heading Altitude Ground
Speed
10-Oct-19 10:10 33.934045 -118.387708 173 138ft 0kts
10-Oct-19 10:11 33.934045 -118.387708 173 138ft 0kts
10-Oct-19 10:12 33.934045 -118.387708 173 138ft 0kts
10-Oct-19 10:13 33.934045 -118.387708 173 138ft 0kts
10-Oct-19 10:14 33.934045 -118.387708 173 138ft 0kts
10-Oct-19 10:15 33.934045 -118.387708 173 138ft 0kts
10-Oct-19 10:16 33.934045 -118.387708 173 138ft 0kts
10-Oct-19 10:17 33.934045 -118.387708 173 138ft 0kts
10-Oct-19 10:18 33.934045 -118.387708 173 138ft 0kts
10-Oct-19 10:19 33.934497 -118.387748 198 138ft 2kts
10-Oct-19 10:20 33.934784 -118.387305 263 138ft 0kts
10-Oct-19 10:21 33.934784 -118.387301 263 138ft 0kts
10-Oct-19 10:22 33.934784 -118.387301 263 138ft 0kts
10-Oct-19 10:23 33.935349 -118.387830 19 138ft 5kts
10-Oct-19 10:24 33.935855 -118.385379 82 138ft 7kts
10-Oct-19 10:25 33.936474 -118.382799 12 138ft 6kts
10-Oct-19 10:26 33.936829 -118.387929 263 138ft 69kts
10-Oct-19 10:27 33.931764 -118.433321 262 1040ft 161kts
10-Oct-19 10:28 33.926276 -118.489681 269 2087ft 181kts
10-Oct-19 10:29 33.921874 -118.561044 266 3136ft 228kts
10-Oct-19 10:30 33.916530 -118.644591 271 4742ft 265kts
10-Oct-19 10:31 33.916163 -118.735140 270 7059ft 278kts
10-Oct-19 10:32 33.915826 -118.829616 271 9520ft 283kts
10-Oct-19 10:33 33.918807 -118.933031 272 10338ft 348kts
10-Oct-19 10:34 33.936951 -119.045971 302 12691ft 350kts
10-Oct-19 10:35 33.988886 -119.147239 302 14744ft 358kts
10-Oct-19 10:36 34.060904 -119.230683 323 16659ft 365kts
10-Oct-19 10:37 34.145050 -119.303344 323 18366ft 375kts
10-Oct-19 10:38 34.230955 -119.377203 323 20097ft 382kts
10-Oct-19 10:39 34.318740 -119.453151 323 21726ft 391kts
10-Oct-19 10:40 34.407774 -119.531264 317 23259ft 398kts
10-Oct-19 10:41 34.486876 -119.627464 313 24703ft 405kts
10-Oct-19 10:42 34.567217 -119.725797 312 26127ft 411kts
10-Oct-19 10:43 34.648334 -119.825876 312 27470ft 418kts
10-Oct-19 10:44 34.730391 -119.927554 311 28707ft 424kts
10-Oct-19 10:45 34.813708 -120.031215 311 29770ft 433kts
10-Oct-19 10:46 34.898406 -120.136759 311 30877ft 439kts
10-Oct-19 10:47 34.984068 -120.243887 311 32256ft 438kts
10-Oct-19 10:48 35.069168 -120.350672 311 33741ft 436kts
10-Oct-19 10:49 35.157910 -120.452441 314 34024ft 434kts
10-Oct-19 10:50 35.247119 -120.552446 314 34023ft 435kts
10-Oct-19 10:51 35.335634 -120.652202 313 34023ft 435kts
10-Oct-19 10:52 35.424963 -120.752993 313 34038ft 435kts
10-Oct-19 10:53 35.517413 -120.850416 318 34053ft 438kts
10-Oct-19 10:54 35.614961 -120.940916 319 34055ft 439kts
10-Oct-19 10:55 35.712787 -121.032026 318 34050ft 440kts
10-Oct-19 10:56 35.809397 -121.123807 319 34032ft 427kts
10-Oct-19 10:57 35.902932 -121.210770 319 32063ft 418kts
10-Oct-19 10:58 35.996735 -121.299027 320 30111ft 427kts
10-Oct-19 10:59 36.091943 -121.384235 326 28264ft 419kts
10-Oct-19 11:00 36.186200 -121.457161 326 26507ft 408kts
10-Oct-19 11:01 36.281328 -121.531532 326 24739ft 398kts
10-Oct-19 11:02 36.373503 -121.605053 326 22982ft 387kts
10-Oct-19 11:03 36.463664 -121.675245 326 21357ft 378kts
10-Oct-19 11:04 36.551149 -121.744286 327 19598ft 363kts
10-Oct-19 11:05 36.635129 -121.810380 328 17937ft 351kts
10-Oct-19 11:06 36.716640 -121.874988 328 16374ft 345kts
10-Oct-19 11:07 36.805693 -121.911903 348 14836ft 334kts
10-Oct-19 11:08 36.895630 -121.937062 348 13320ft 328kts
10-Oct-19 11:09 36.983240 -121.965319 344 11892ft 322kts
10-Oct-19 11:10 37.068308 -121.998547 344 10523ft 315kts
10-Oct-19 11:11 37.145015 -122.028527 344 10032ft 276kts
10-Oct-19 11:12 37.217768 -122.056996 345 8865ft 266kts
10-Oct-19 11:13 37.286995 -122.084161 345 7821ft 260kts
10-Oct-19 11:14 37.356436 -122.111523 345 6504ft 260kts
10-Oct-19 11:15 37.423550 -122.135094 347 5170ft 234kts
10-Oct-19 11:16 37.483411 -122.155213 348 3899ft 211kts
10-Oct-19 11:17 37.537352 -122.177451 318 3140ft 204kts
10-Oct-19 11:18 37.564171 -122.239738 302 2151ft 180kts
10-Oct-19 11:19 37.585522 -122.290447 299 1220ft 139kts
10-Oct-19 11:20 37.603396 -122.333510 299 522ft 140kts
10-Oct-19 11:21 37.620747 -122.374338 297 25ft 100kts
10-Oct-19 11:22 37.627935 -122.390909 328 24ft 14kts
10-Oct-19 11:23 37.630834 -122.392509 340 24ft 8kts
10-Oct-19 11:24 37.633024 -122.391756 354 24ft 9kts
10-Oct-19 11:25 37.634267 -122.389844 69 24ft 6kts
10-Oct-19 11:26 37.635518 -122.388137 334 24ft 8kts
10-Oct-19 11:27 37.636625 -122.388007 61 24ft 0kts

Navigation Log

Ident Type
Flight plan parsing failed, navigation log unavailable